sensor_id;sensor_type;location;lat;lon;timestamp;pressure;altitude;pressure_sealevel;temperature;humidity
54910;BME280;63189;51.240;9.964;2023-11-21T00:00:13;97231.56;;;5.80;100.00
54910;BME280;63189;51.240;9.964;2023-11-21T00:02:40;97239.31;;;5.80;100.00
54910;BME280;63189;51.240;9.964;2023-11-21T00:05:12;97232.53;;;5.76;100.00
54910;BME280;63189;51.240;9.964;2023-11-21T00:07:40;97237.75;;;5.75;100.00
54910;BME280;63189;51.240;9.964;2023-11-21T00:10:07;97238.63;;;5.74;100.00
54910;BME280;63189;51.240;9.964;2023-11-21T00:12:33;97231.81;;;5.70;100.00
54910;BME280;63189;51.240;9.964;2023-11-21T00:14:59;97220.81;;;5.60;100.00
54910;BME280;63189;51.240;9.964;2023-11-21T00:17:24;97233.63;;;5.66;100.00
54910;BME280;63189;51.240;9.964;2023-11-21T00:19:50;97241.34;;;5.68;100.00
54910;BME280;63189;51.240;9.964;2023-11-21T00:22:18;97236.25;;;5.65;100.00
54910;BME280;63189;51.240;9.964;2023-11-21T00:24:44;97237.09;;;5.65;100.00
54910;BME280;63189;51.240;9.964;2023-11-21T00:27:09;97230.28;;;5.61;100.00
54910;BME280;63189;51.240;9.964;2023-11-21T00:29:35;97245.78;;;5.63;100.00
54910;BME280;63189;51.240;9.964;2023-11-21T00:32:00;97244.94;;;5.61;100.00
54910;BME280;63189;51.240;9.964;2023-11-21T00:34:25;97242.41;;;5.59;100.00
54910;BME280;63189;51.240;9.964;2023-11-21T00:36:51;97258.75;;;5.60;100.00
54910;BME280;63189;51.240;9.964;2023-11-21T00:39:16;97245.94;;;5.55;100.00
54910;BME280;63189;51.240;9.964;2023-11-21T00:41:41;97247.72;;;5.51;100.00
54910;BME280;63189;51.240;9.964;2023-11-21T00:44:07;97248.69;;;5.47;100.00
54910;BME280;63189;51.240;9.964;2023-11-21T00:46:32;97241.88;;;5.45;100.00
54910;BME280;63189;51.240;9.964;2023-11-21T00:48:58;97254.81;;;5.43;100.00
54910;BME280;63189;51.240;9.964;2023-11-21T00:51:23;97260.88;;;5.42;100.00
54910;BME280;63189;51.240;9.964;2023-11-21T00:53:49;97266.91;;;5.43;100.00
54910;BME280;63189;51.240;9.964;2023-11-21T00:56:15;97268.66;;;5.41;100.00
54910;BME280;63189;51.240;9.964;2023-11-21T00:58:40;97278.16;;;5.39;100.00
54910;BME280;63189;51.240;9.964;2023-11-21T01:01:15;97271.38;;;5.35;100.00
54910;BME280;63189;51.240;9.964;2023-11-21T01:03:40;97274.00;;;5.33;100.00
54910;BME280;63189;51.240;9.964;2023-11-21T01:06:06;97282.63;;;5.31;100.00
54910;BME280;63189;51.240;9.964;2023-11-21T01:08:33;97281.09;;;5.24;100.00
54910;BME280;63189;51.240;9.964;2023-11-21T01:10:58;97276.84;;;5.21;100.00
54910;BME280;63189;51.240;9.964;2023-11-21T01:13:23;97278.56;;;5.19;100.00
54910;BME280;63189;51.240;9.964;2023-11-21T01:15:49;97277.75;;;5.17;100.00
54910;BME280;63189;51.240;9.964;2023-11-21T01:18:14;97279.53;;;5.15;100.00
54910;BME280;63189;51.240;9.964;2023-11-21T01:20:39;97268.41;;;5.10;100.00
54910;BME280;63189;51.240;9.964;2023-11-21T01:23:05;97280.47;;;5.11;100.00
54910;BME280;63189;51.240;9.964;2023-11-21T01:25:30;97278.81;;;5.07;100.00
54910;BME280;63189;51.240;9.964;2023-11-21T01:27:56;97282.22;;;5.09;100.00
54910;BME280;63189;51.240;9.964;2023-11-21T01:30:21;97289.22;;;5.04;100.00
54910;BME280;63189;51.240;9.964;2023-11-21T01:32:47;97291.88;;;4.99;100.00
54910;BME280;63189;51.240;9.964;2023-11-21T01:35:12;97295.28;;;5.03;100.00
54910;BME280;63189;51.240;9.964;2023-11-21T01:37:38;97292.72;;;5.00;100.00
54910;BME280;63189;51.240;9.964;2023-11-21T01:40:04;97297.91;;;5.00;100.00
54910;BME280;63189;51.240;9.964;2023-11-21T01:42:34;97294.50;;;4.98;100.00
54910;BME280;63189;51.240;9.964;2023-11-21T01:44:59;97292.81;;;4.95;100.00
54910;BME280;63189;51.240;9.964;2023-11-21T01:47:25;97293.69;;;4.96;100.00
54910;BME280;63189;51.240;9.964;2023-11-21T01:49:50;97293.72;;;4.94;100.00
54910;BME280;63189;51.240;9.964;2023-11-21T01:52:16;97287.75;;;4.89;100.00
54910;BME280;63189;51.240;9.964;2023-11-21T01:54:42;97297.25;;;4.88;100.00
54910;BME280;63189;51.240;9.964;2023-11-21T01:57:08;97281.91;;;4.81;100.00
54910;BME280;63189;51.240;9.964;2023-11-21T01:59:35;97293.97;;;4.80;100.00
54910;BME280;63189;51.240;9.964;2023-11-21T02:02:07;97292.31;;;4.76;100.00
54910;BME280;63189;51.240;9.964;2023-11-21T02:04:35;97300.00;;;4.79;100.00
54910;BME280;63189;51.240;9.964;2023-11-21T02:07:02;97303.47;;;4.80;100.00
54910;BME280;63189;51.240;9.964;2023-11-21T02:09:31;97307.88;;;4.73;100.00
54910;BME280;63189;51.240;9.964;2023-11-21T02:11:58;97302.78;;;4.70;100.00
54910;BME280;63189;51.240;9.964;2023-11-21T02:14:27;97307.06;;;4.68;100.00
54910;BME280;63189;51.240;9.964;2023-11-21T02:16:53;97314.81;;;4.68;100.00
54910;BME280;63189;51.240;9.964;2023-11-21T02:19:21;97306.28;;;4.64;100.00
54910;BME280;63189;51.240;9.964;2023-11-21T02:21:56;97314.06;;;4.63;100.00
54910;BME280;63189;51.240;9.964;2023-11-21T02:24:23;97325.31;;;4.60;100.00
54910;BME280;63189;51.240;9.964;2023-11-21T02:26:49;97315.94;;;4.53;100.00
54910;BME280;63189;51.240;9.964;2023-11-21T02:29:18;97321.97;;;4.54;100.00
54910;BME280;63189;51.240;9.964;2023-11-21T02:31:47;97334.88;;;4.54;100.00
54910;BME280;63189;51.240;9.964;2023-11-21T02:34:16;97334.09;;;4.50;100.00
54910;BME280;63189;51.240;9.964;2023-11-21T02:36:45;97325.53;;;4.48;100.00
54910;BME280;63189;51.240;9.964;2023-11-21T02:39:12;97322.94;;;4.47;100.00
54910;BME280;63189;51.240;9.964;2023-11-21T02:41:38;97316.97;;;4.43;100.00
54910;BME280;63189;51.240;9.964;2023-11-21T02:44:07;97324.69;;;4.45;100.00
54910;BME280;63189;51.240;9.964;2023-11-21T02:46:34;97319.59;;;4.42;100.00
54910;BME280;63189;51.240;9.964;2023-11-21T02:49:00;97322.19;;;4.42;100.00
54910;BME280;63189;51.240;9.964;2023-11-21T02:51:26;97325.50;;;4.47;100.00
54910;BME280;63189;51.240;9.964;2023-11-21T02:53:51;97326.50;;;4.41;100.00
54910;BME280;63189;51.240;9.964;2023-11-21T02:56:17;97327.41;;;4.39;100.00
54910;BME280;63189;51.240;9.964;2023-11-21T02:58:43;97324.88;;;4.34;100.00
54910;BME280;63189;51.240;9.964;2023-11-21T03:01:09;97329.16;;;4.35;100.00
54910;BME280;63189;51.240;9.964;2023-11-21T03:03:36;97321.50;;;4.30;100.00
54910;BME280;63189;51.240;9.964;2023-11-21T03:06:06;97329.16;;;4.35;100.00
54910;BME280;63189;51.240;9.964;2023-11-21T03:08:31;97329.13;;;4.37;100.00
54910;BME280;63189;51.240;9.964;2023-11-21T03:10:57;97328.31;;;4.33;100.00
54910;BME280;63189;51.240;9.964;2023-11-21T03:13:22;97322.41;;;4.28;100.00
54910;BME280;63189;51.240;9.964;2023-11-21T03:15:48;97330.16;;;4.28;100.00
54910;BME280;63189;51.240;9.964;2023-11-21T03:18:13;97330.06;;;4.32;100.00
54910;BME280;63189;51.240;9.964;2023-11-21T03:20:38;97324.91;;;4.32;100.00
54910;BME280;63189;51.240;9.964;2023-11-21T03:23:04;97323.13;;;4.34;100.00
54910;BME280;63189;51.240;9.964;2023-11-21T03:25:30;97325.72;;;4.34;100.00
54910;BME280;63189;51.240;9.964;2023-11-21T03:27:56;97336.78;;;4.43;100.00
54910;BME280;63189;51.240;9.964;2023-11-21T03:30:21;97333.34;;;4.42;100.00
54910;BME280;63189;51.240;9.964;2023-11-21T03:32:47;97340.25;;;4.42;100.00
54910;BME280;63189;51.240;9.964;2023-11-21T03:35:12;97344.44;;;4.47;100.00
54910;BME280;63189;51.240;9.964;2023-11-21T03:37:39;97347.75;;;4.55;100.00
54910;BME280;63189;51.240;9.964;2023-11-21T03:40:07;97346.03;;;4.56;100.00
54910;BME280;63189;51.240;9.964;2023-11-21T03:42:34;97351.13;;;4.60;100.00
54910;BME280;63189;51.240;9.964;2023-11-21T03:44:59;97357.03;;;4.67;100.00
54910;BME280;63189;51.240;9.964;2023-11-21T03:47:26;97354.41;;;4.70;100.00
54910;BME280;63189;51.240;9.964;2023-11-21T03:49:51;97354.31;;;4.75;100.00
54910;BME280;63189;51.240;9.964;2023-11-21T03:52:17;97367.13;;;4.79;100.00
54910;BME280;63189;51.240;9.964;2023-11-21T03:54:42;97357.69;;;4.78;100.00
54910;BME280;63189;51.240;9.964;2023-11-21T03:57:11;97356.81;;;4.79;100.00
54910;BME280;63189;51.240;9.964;2023-11-21T03:59:39;97356.81;;;4.79;100.00
54910;BME280;63189;51.240;9.964;2023-11-21T04:02:05;97351.63;;;4.82;100.00
54910;BME280;63189;51.240;9.964;2023-11-21T04:04:30;97354.13;;;4.85;100.00
54910;BME280;63189;51.240;9.964;2023-11-21T04:06:56;97357.56;;;4.86;100.00
54910;BME280;63189;51.240;9.964;2023-11-21T04:09:21;97355.00;;;4.84;100.00
54910;BME280;63189;51.240;9.964;2023-11-21T04:11:50;97364.44;;;4.87;100.00
54910;BME280;63189;51.240;9.964;2023-11-21T04:14:16;97355.00;;;4.84;100.00
54910;BME280;63189;51.240;9.964;2023-11-21T04:16:42;97372.16;;;4.90;100.00
54910;BME280;63189;51.240;9.964;2023-11-21T04:19:07;97370.41;;;4.90;100.00
54910;BME280;63189;51.240;9.964;2023-11-21T04:21:34;97363.59;;;4.86;100.00
54910;BME280;63189;51.240;9.964;2023-11-21T04:23:59;97363.66;;;4.83;100.00
54910;BME280;63189;51.240;9.964;2023-11-21T04:26:25;97367.03;;;4.85;100.00
54910;BME280;63189;51.240;9.964;2023-11-21T04:28:50;97357.69;;;4.80;100.00
54910;BME280;63189;51.240;9.964;2023-11-21T04:31:18;97360.25;;;4.81;100.00
54910;BME280;63189;51.240;9.964;2023-11-21T04:33:43;97356.81;;;4.79;100.00
54910;BME280;63189;51.240;9.964;2023-11-21T04:36:10;97370.66;;;4.75;100.00
54910;BME280;63189;51.240;9.964;2023-11-21T04:38:35;97355.19;;;4.74;100.00
54910;BME280;63189;51.240;9.964;2023-11-21T04:41:01;97373.38;;;4.69;100.00
54910;BME280;63189;51.240;9.964;2023-11-21T04:43:29;97369.16;;;4.62;100.00
54910;BME280;63189;51.240;9.964;2023-11-21T04:45:55;97357.28;;;4.52;100.00
54910;BME280;63189;51.240;9.964;2023-11-21T04:48:20;97359.94;;;4.49;100.00
54910;BME280;63189;51.240;9.964;2023-11-21T04:50:45;97377.13;;;4.50;100.00
54910;BME280;63189;51.240;9.964;2023-11-21T04:53:11;97385.69;;;4.52;100.00
54910;BME280;63189;51.240;9.964;2023-11-21T04:55:39;97392.59;;;4.50;100.00
54910;BME280;63189;51.240;9.964;2023-11-21T04:58:04;97390.09;;;4.44;100.00
54910;BME280;63189;51.240;9.964;2023-11-21T05:00:30;97391.84;;;4.43;100.00
54910;BME280;63189;51.240;9.964;2023-11-21T05:02:55;97398.66;;;4.46;100.00
54910;BME280;63189;51.240;9.964;2023-11-21T05:05:20;97403.84;;;4.46;100.00
54910;BME280;63189;51.240;9.964;2023-11-21T05:07:45;97398.81;;;4.38;100.00
54910;BME280;63189;51.240;9.964;2023-11-21T05:10:11;97396.22;;;4.38;100.00
54910;BME280;63189;51.240;9.964;2023-11-21T05:12:41;97398.81;;;4.37;100.00
54910;BME280;63189;51.240;9.964;2023-11-21T05:15:08;97400.63;;;4.31;100.00
54910;BME280;63189;51.240;9.964;2023-11-21T05:17:35;97411.81;;;4.30;100.00
54910;BME280;63189;51.240;9.964;2023-11-21T05:20:00;97411.06;;;4.22;100.00
54910;BME280;63189;51.240;9.964;2023-11-21T05:22:28;97414.53;;;4.21;100.00
54910;BME280;63189;51.240;9.964;2023-11-21T05:24:54;97414.63;;;4.14;100.00
54910;BME280;63189;51.240;9.964;2023-11-21T05:27:19;97424.97;;;4.12;100.00
54910;BME280;63189;51.240;9.964;2023-11-21T05:29:44;97429.34;;;4.07;100.00
54910;BME280;63189;51.240;9.964;2023-11-21T05:32:10;97426.78;;;4.04;100.00
54910;BME280;63189;51.240;9.964;2023-11-21T05:34:35;97433.66;;;4.05;100.00
54910;BME280;63189;51.240;9.964;2023-11-21T05:37:00;97430.28;;;4.00;100.00
54910;BME280;63189;51.240;9.964;2023-11-21T05:39:26;97445.72;;;4.03;100.00
54910;BME280;63189;51.240;9.964;2023-11-21T05:41:53;97449.22;;;3.99;100.00
54910;BME280;63189;51.240;9.964;2023-11-21T05:44:19;97450.03;;;4.01;100.00
54910;BME280;63189;51.240;9.964;2023-11-21T05:46:44;97450.13;;;3.96;100.00
54910;BME280;63189;51.240;9.964;2023-11-21T05:49:10;97454.50;;;3.90;100.00
54910;BME280;63189;51.240;9.964;2023-11-21T05:51:37;97454.53;;;3.87;100.00
54910;BME280;63189;51.240;9.964;2023-11-21T05:54:02;97452.03;;;3.79;100.00
54910;BME280;63189;51.240;9.964;2023-11-21T05:56:28;97454.63;;;3.78;100.00
54910;BME280;63189;51.240;9.964;2023-11-21T05:58:53;97456.41;;;3.72;100.00
54910;BME280;63189;51.240;9.964;2023-11-21T06:01:18;97457.28;;;3.71;100.00
54910;BME280;63189;51.240;9.964;2023-11-21T06:03:44;97465.00;;;3.71;100.00
54910;BME280;63189;51.240;9.964;2023-11-21T06:06:10;97465.84;;;3.72;100.00
54910;BME280;63189;51.240;9.964;2023-11-21T06:08:36;97462.38;;;3.74;100.00
54910;BME280;63189;51.240;9.964;2023-11-21T06:11:01;97469.31;;;3.71;100.00
54910;BME280;63189;51.240;9.964;2023-11-21T06:13:26;97468.47;;;3.69;100.00
54910;BME280;63189;51.240;9.964;2023-11-21T06:15:52;97463.34;;;3.64;100.00
54910;BME280;63189;51.240;9.964;2023-11-21T06:18:18;97470.34;;;3.56;100.00
54910;BME280;63189;51.240;9.964;2023-11-21T06:20:46;97474.63;;;3.54;100.00
54910;BME280;63189;51.240;9.964;2023-11-21T06:23:12;97470.34;;;3.53;100.00
54910;BME280;63189;51.240;9.964;2023-11-21T06:25:37;97472.09;;;3.53;100.00
54910;BME280;63189;51.240;9.964;2023-11-21T06:28:03;97478.09;;;3.53;100.00
54910;BME280;63189;51.240;9.964;2023-11-21T06:30:28;97470.44;;;3.47;100.00
54910;BME280;63189;51.240;9.964;2023-11-21T06:32:54;97477.28;;;3.48;100.00
54910;BME280;63189;51.240;9.964;2023-11-21T06:35:20;97482.41;;;3.51;100.00
54910;BME280;63189;51.240;9.964;2023-11-21T06:37:45;97491.00;;;3.50;100.00
54910;BME280;63189;51.240;9.964;2023-11-21T06:40:13;97496.16;;;3.50;100.00
54910;BME280;63189;51.240;9.964;2023-11-21T06:42:40;97499.63;;;3.49;100.00
54910;BME280;63189;51.240;9.964;2023-11-21T06:45:06;97494.50;;;3.43;100.00
54910;BME280;63189;51.240;9.964;2023-11-21T06:47:32;97499.66;;;3.46;100.00
54910;BME280;63189;51.240;9.964;2023-11-21T06:49:58;97510.78;;;3.50;100.00
54910;BME280;63189;51.240;9.964;2023-11-21T06:52:24;97505.63;;;3.50;100.00
54910;BME280;63189;51.240;9.964;2023-11-21T06:54:49;97508.19;;;3.51;100.00
54910;BME280;63189;51.240;9.964;2023-11-21T06:57:15;97515.03;;;3.52;100.00
54910;BME280;63189;51.240;9.964;2023-11-21T06:59:43;97512.50;;;3.51;100.00
54910;BME280;63189;51.240;9.964;2023-11-21T07:02:08;97509.94;;;3.49;100.00
54910;BME280;63189;51.240;9.964;2023-11-21T07:04:36;97523.66;;;3.50;100.00
54910;BME280;63189;51.240;9.964;2023-11-21T07:07:02;97523.66;;;3.51;100.00
54910;BME280;63189;51.240;9.964;2023-11-21T07:09:28;97508.22;;;3.48;100.00
54910;BME280;63189;51.240;9.964;2023-11-21T07:11:54;97526.16;;;3.59;100.00
54910;BME280;63189;51.240;9.964;2023-11-21T07:14:20;97541.56;;;3.65;100.00
54910;BME280;63189;51.240;9.964;2023-11-21T07:16:46;97529.53;;;3.64;100.00
54910;BME280;63189;51.240;9.964;2023-11-21T07:19:14;97552.63;;;3.74;100.00
54910;BME280;63189;51.240;9.964;2023-11-21T07:21:39;97549.16;;;3.79;100.00
54910;BME280;63189;51.240;9.964;2023-11-21T07:24:06;97549.13;;;3.82;100.00
54910;BME280;63189;51.240;9.964;2023-11-21T07:26:33;97552.53;;;3.84;100.00
54910;BME280;63189;51.240;9.964;2023-11-21T07:29:02;97549.06;;;3.88;100.00
54910;BME280;63189;51.240;9.964;2023-11-21T07:31:28;97551.59;;;3.92;100.00
54910;BME280;63189;51.240;9.964;2023-11-21T07:33:54;97556.72;;;3.97;100.00
54910;BME280;63189;51.240;9.964;2023-11-21T07:36:19;97554.06;;;4.03;100.00
54910;BME280;63189;51.240;9.964;2023-11-21T07:38:47;97555.75;;;4.07;100.00
54910;BME280;63189;51.240;9.964;2023-11-21T07:41:13;97571.09;;;4.16;100.00
54910;BME280;63189;51.240;9.964;2023-11-21T07:43:43;97568.44;;;4.24;100.00
54910;BME280;63189;51.240;9.964;2023-11-21T07:46:08;97570.94;;;4.31;100.00
54910;BME280;63189;51.240;9.964;2023-11-21T07:48:34;97574.25;;;4.43;100.00
54910;BME280;63189;51.240;9.964;2023-11-21T07:51:01;97574.19;;;4.46;100.00
54910;BME280;63189;51.240;9.964;2023-11-21T07:53:27;97572.38;;;4.54;100.00
54910;BME280;63189;51.240;9.964;2023-11-21T07:55:57;97572.31;;;4.57;100.00
54910;BME280;63189;51.240;9.964;2023-11-21T07:58:23;97578.28;;;4.63;100.00
54910;BME280;63189;51.240;9.964;2023-11-21T08:00:49;97587.66;;;4.71;100.00
54910;BME280;63189;51.240;9.964;2023-11-21T08:03:15;97582.41;;;4.75;100.00
54910;BME280;63189;51.240;9.964;2023-11-21T08:05:41;97590.97;;;4.79;100.00
54910;BME280;63189;51.240;9.964;2023-11-21T08:08:06;97586.66;;;4.79;100.00
54910;BME280;63189;51.240;9.964;2023-11-21T08:10:31;97590.88;;;4.86;100.00
54910;BME280;63189;51.240;9.964;2023-11-21T08:12:57;97595.97;;;4.92;100.00
54910;BME280;63189;51.240;9.964;2023-11-21T08:15:23;97601.91;;;4.98;100.00
54910;BME280;63189;51.240;9.964;2023-11-21T08:17:48;97601.03;;;4.99;100.00
54910;BME280;63189;51.240;9.964;2023-11-21T08:20:14;97606.97;;;5.05;100.00
54910;BME280;63189;51.240;9.964;2023-11-21T08:22:43;97600.88;;;5.11;100.00
54910;BME280;63189;51.240;9.964;2023-11-21T08:25:09;97607.72;;;5.15;100.00
54910;BME280;63189;51.240;9.964;2023-11-21T08:27:34;97600.88;;;5.12;100.00
54910;BME280;63189;51.240;9.964;2023-11-21T08:30:00;97617.09;;;5.22;100.00
54910;BME280;63189;51.240;9.964;2023-11-21T08:32:26;97613.56;;;5.26;100.00
54910;BME280;63189;51.240;9.964;2023-11-21T08:34:51;97615.28;;;5.27;100.00
54910;BME280;63189;51.240;9.964;2023-11-21T08:37:20;97617.81;;;5.30;100.00
54910;BME280;63189;51.240;9.964;2023-11-21T08:39:46;97616.06;;;5.32;100.00
54910;BME280;63189;51.240;9.964;2023-11-21T08:42:13;97616.84;;;5.37;100.00
54910;BME280;63189;51.240;9.964;2023-11-21T08:44:39;97617.66;;;5.39;100.00
54910;BME280;63189;51.240;9.964;2023-11-21T08:47:05;97622.81;;;5.42;100.00
54910;BME280;63189;51.240;9.964;2023-11-21T08:49:30;97628.00;;;5.42;100.00
54910;BME280;63189;51.240;9.964;2023-11-21T08:51:55;97627.09;;;5.43;100.00
54910;BME280;63189;51.240;9.964;2023-11-21T08:54:22;97629.66;;;5.45;100.00
54910;BME280;63189;51.240;9.964;2023-11-21T08:56:48;97622.75;;;5.45;100.00
54910;BME280;63189;51.240;9.964;2023-11-21T08:59:15;97620.19;;;5.44;100.00
54910;BME280;63189;51.240;9.964;2023-11-21T09:01:40;97632.13;;;5.51;100.00
54910;BME280;63189;51.240;9.964;2023-11-21T09:04:06;97634.72;;;5.53;100.00
54910;BME280;63189;51.240;9.964;2023-11-21T09:06:31;97639.84;;;5.56;100.00
54910;BME280;63189;51.240;9.964;2023-11-21T09:08:57;97639.84;;;5.56;100.00
54910;BME280;63189;51.240;9.964;2023-11-21T09:11:23;97637.22;;;5.57;100.00
54910;BME280;63189;51.240;9.964;2023-11-21T09:13:50;97644.91;;;5.62;100.00
54910;BME280;63189;51.240;9.964;2023-11-21T09:16:16;97644.00;;;5.66;100.00
54910;BME280;63189;51.240;9.964;2023-11-21T09:18:42;97637.94;;;5.67;100.00
54910;BME280;63189;51.240;9.964;2023-11-21T09:21:07;97651.63;;;5.73;100.00
54910;BME280;63189;51.240;9.964;2023-11-21T09:23:33;97649.91;;;5.74;100.00
54910;BME280;63189;51.240;9.964;2023-11-21T09:25:59;97651.63;;;5.72;100.00
54910;BME280;63189;51.240;9.964;2023-11-21T09:28:26;97664.44;;;5.79;100.00
54910;BME280;63189;51.240;9.964;2023-11-21T09:30:52;97664.44;;;5.79;100.00
54910;BME280;63189;51.240;9.964;2023-11-21T09:33:18;97672.16;;;5.84;100.00
54910;BME280;63189;51.240;9.964;2023-11-21T09:35:43;97672.13;;;5.86;100.00
54910;BME280;63189;51.240;9.964;2023-11-21T09:38:09;97675.59;;;5.83;100.00
54910;BME280;63189;51.240;9.964;2023-11-21T09:40:36;97679.91;;;5.84;100.00
54910;BME280;63189;51.240;9.964;2023-11-21T09:43:06;97672.22;;;5.79;100.00
54910;BME280;63189;51.240;9.964;2023-11-21T09:45:35;97673.09;;;5.78;100.00
54910;BME280;63189;51.240;9.964;2023-11-21T09:48:01;97674.84;;;5.76;100.00
54910;BME280;63189;51.240;9.964;2023-11-21T09:50:27;97681.78;;;5.74;100.00
54910;BME280;63189;51.240;9.964;2023-11-21T09:55:36;97650.16;;;5.57;100.00
54910;BME280;63189;51.240;9.964;2023-11-21T09:58:04;97670.66;;;5.69;100.00
54910;BME280;63189;51.240;9.964;2023-11-21T10:00:35;97665.59;;;5.62;100.00
54910;BME280;63189;51.240;9.964;2023-11-21T10:03:01;97691.22;;;5.77;100.00
54910;BME280;63189;51.240;9.964;2023-11-21T10:05:27;97680.91;;;5.75;100.00
54910;BME280;63189;51.240;9.964;2023-11-21T10:07:55;97680.09;;;5.73;100.00
54910;BME280;63189;51.240;9.964;2023-11-21T10:10:22;97684.44;;;5.70;100.00
54910;BME280;63189;51.240;9.964;2023-11-21T10:12:50;97686.94;;;5.76;100.00
54910;BME280;63189;51.240;9.964;2023-11-21T10:15:23;97692.03;;;5.80;100.00
54910;BME280;63189;51.240;9.964;2023-11-21T10:17:53;97692.00;;;5.84;100.00
54910;BME280;63189;51.240;9.964;2023-11-21T10:20:20;97687.69;;;5.84;100.00
54910;BME280;63189;51.240;9.964;2023-11-21T10:22:45;97699.69;;;5.87;100.00
54910;BME280;63189;51.240;9.964;2023-11-21T10:25:12;97696.19;;;5.89;100.00
54910;BME280;63189;51.240;9.964;2023-11-21T10:27:40;97691.03;;;5.89;100.00
54910;BME280;63189;51.240;9.964;2023-11-21T10:30:07;97703.03;;;5.96;100.00
54910;BME280;63189;51.240;9.964;2023-11-21T10:32:39;97702.09;;;6.00;100.00
54910;BME280;63189;51.240;9.964;2023-11-21T10:35:09;97702.97;;;5.99;100.00
54910;BME280;63189;51.240;9.964;2023-11-21T10:37:40;97702.00;;;6.06;100.00
54910;BME280;63189;51.240;9.964;2023-11-21T10:40:07;97708.84;;;6.09;100.00
54910;BME280;63189;51.240;9.964;2023-11-21T10:42:33;97701.06;;;6.11;100.00
54910;BME280;63189;51.240;9.964;2023-11-21T10:44:58;97711.31;;;6.17;100.00
54910;BME280;63189;51.240;9.964;2023-11-21T10:47:24;97700.09;;;6.18;100.00
54910;BME280;63189;51.240;9.964;2023-11-21T10:49:49;97698.28;;;6.21;100.00
54910;BME280;63189;51.240;9.964;2023-11-21T10:52:15;97697.44;;;6.21;100.00
54910;BME280;63189;51.240;9.964;2023-11-21T10:54:46;97701.66;;;6.25;100.00
54910;BME280;63189;51.240;9.964;2023-11-21T10:57:16;97697.38;;;6.25;100.00
54910;BME280;63189;51.240;9.964;2023-11-21T10:59:46;97700.81;;;6.26;100.00
54910;BME280;63189;51.240;9.964;2023-11-21T11:02:25;97712.75;;;6.33;100.00
54910;BME280;63189;51.240;9.964;2023-11-21T11:04:53;97697.22;;;6.33;100.00
54910;BME280;63189;51.240;9.964;2023-11-21T11:07:23;97710.13;;;6.36;100.00
54910;BME280;63189;51.240;9.964;2023-11-21T11:09:51;97710.91;;;6.40;100.00
54910;BME280;63189;51.240;9.964;2023-11-21T11:12:17;97707.50;;;6.38;100.00
54910;BME280;63189;51.240;9.964;2023-11-21T11:14:44;97708.41;;;6.35;100.00
54910;BME280;63189;51.240;9.964;2023-11-21T11:17:13;97710.88;;;6.41;100.00
54910;BME280;63189;51.240;9.964;2023-11-21T11:19:39;97710.06;;;6.39;100.00
54910;BME280;63189;51.240;9.964;2023-11-21T11:28:19;97724.53;;;6.51;100.00
54910;BME280;63189;51.240;9.964;2023-11-21T11:31:05;97715.97;;;6.47;100.00
54910;BME280;63189;51.240;9.964;2023-11-21T11:34:35;97720.94;;;6.56;100.00
54910;BME280;63189;51.240;9.964;2023-11-21T11:37:06;97723.53;;;6.58;100.00
54910;BME280;63189;51.240;9.964;2023-11-21T11:39:39;97707.38;;;6.44;100.00
54910;BME280;63189;51.240;9.964;2023-11-21T11:42:12;97708.16;;;6.49;100.00
54910;BME280;63189;51.240;9.964;2023-11-21T11:47:23;97716.63;;;6.58;100.00
54910;BME280;63189;51.240;9.964;2023-11-21T11:50:02;97731.22;;;6.62;100.00
54910;BME280;63189;51.240;9.964;2023-11-21T11:54:57;97721.88;;;6.54;100.00
54910;BME280;63189;51.240;9.964;2023-11-21T11:57:29;97732.06;;;6.63;100.00
54910;BME280;63189;51.240;9.964;2023-11-21T12:02:40;97738.09;;;6.63;100.00
54910;BME280;63189;51.240;9.964;2023-11-21T12:05:12;97739.00;;;6.62;100.00
54910;BME280;63189;51.240;9.964;2023-11-21T12:07:51;97741.50;;;6.65;100.00
54910;BME280;63189;51.240;9.964;2023-11-21T12:10:24;97738.13;;;6.62;100.00
54910;BME280;63189;51.240;9.964;2023-11-21T12:12:55;97751.88;;;6.65;100.00
54910;BME280;63189;51.240;9.964;2023-11-21T12:15:22;97752.72;;;6.66;100.00
54910;BME280;63189;51.240;9.964;2023-11-21T12:17:49;97751.88;;;6.65;100.00
54910;BME280;63189;51.240;9.964;2023-11-21T12:20:18;97752.69;;;6.69;100.00
54910;BME280;63189;51.240;9.964;2023-11-21T12:22:48;97744.97;;;6.68;100.00
54910;BME280;63189;51.240;9.964;2023-11-21T12:25:34;97751.75;;;6.73;100.00
54910;BME280;63189;51.240;9.964;2023-11-21T12:28:02;97753.41;;;6.76;100.00
54910;BME280;63189;51.240;9.964;2023-11-21T12:30:29;97756.06;;;6.73;100.00
54910;BME280;63189;51.240;9.964;2023-11-21T12:32:56;97748.44;;;6.65;100.00
54910;BME280;63189;51.240;9.964;2023-11-21T12:35:24;97734.72;;;6.60;100.00
54910;BME280;63189;51.240;9.964;2023-11-21T12:37:51;97753.47;;;6.73;100.00
54910;BME280;63189;51.240;9.964;2023-11-21T12:40:17;97747.47;;;6.71;100.00
54910;BME280;63189;51.240;9.964;2023-11-21T12:42:47;97744.97;;;6.68;100.00
54910;BME280;63189;51.240;9.964;2023-11-21T12:47:43;97754.50;;;6.64;100.00
54910;BME280;63189;51.240;9.964;2023-11-21T12:50:10;97761.41;;;6.63;100.00
54910;BME280;63189;51.240;9.964;2023-11-21T12:52:45;97767.53;;;6.59;100.00
54910;BME280;63189;51.240;9.964;2023-11-21T12:55:17;97765.03;;;6.55;100.00
54910;BME280;63189;51.240;9.964;2023-11-21T12:57:48;97777.19;;;6.51;100.00
54910;BME280;63189;51.240;9.964;2023-11-21T13:00:17;97772.03;;;6.50;100.00
54910;BME280;63189;51.240;9.964;2023-11-21T13:02:56;97777.34;;;6.42;100.00
54910;BME280;63189;51.240;9.964;2023-11-21T13:05:43;97781.63;;;6.43;100.00
54910;BME280;63189;51.240;9.964;2023-11-21T13:08:16;97779.06;;;6.42;100.00
54910;BME280;63189;51.240;9.964;2023-11-21T13:10:45;97783.38;;;6.43;100.00
54910;BME280;63189;51.240;9.964;2023-11-21T13:13:13;97779.97;;;6.39;100.00
54910;BME280;63189;51.240;9.964;2023-11-21T13:15:48;97787.81;;;6.36;100.00
54910;BME280;63189;51.240;9.964;2023-11-21T13:18:13;97787.88;;;6.31;100.00